sensor_id;sensor_type;location;lat;lon;timestamp;temperature;humidity
30999;DHT22;20549;50.042;8.968;2023-02-22T00:00:23;7.20;94.90
30999;DHT22;20549;50.042;8.968;2023-02-22T00:02:50;7.20;95.00
30999;DHT22;20549;50.042;8.968;2023-02-22T00:05:16;7.20;95.10
30999;DHT22;20549;50.042;8.968;2023-02-22T00:07:43;7.20;95.20
30999;DHT22;20549;50.042;8.968;2023-02-22T00:10:09;7.20;95.30
30999;DHT22;20549;50.042;8.968;2023-02-22T00:12:36;7.20;95.20
30999;DHT22;20549;50.042;8.968;2023-02-22T00:15:02;7.20;95.00
30999;DHT22;20549;50.042;8.968;2023-02-22T00:17:29;7.20;94.80
30999;DHT22;20549;50.042;8.968;2023-02-22T00:19:55;7.20;94.60
30999;DHT22;20549;50.042;8.968;2023-02-22T00:22:22;7.10;94.50
30999;DHT22;20549;50.042;8.968;2023-02-22T00:24:49;7.00;94.40
30999;DHT22;20549;50.042;8.968;2023-02-22T00:27:15;7.00;94.50
30999;DHT22;20549;50.042;8.968;2023-02-22T00:29:45;7.00;94.50
30999;DHT22;20549;50.042;8.968;2023-02-22T00:32:11;6.90;94.50
30999;DHT22;20549;50.042;8.968;2023-02-22T00:34:38;6.90;94.50
30999;DHT22;20549;50.042;8.968;2023-02-22T00:37:04;6.90;94.50
30999;DHT22;20549;50.042;8.968;2023-02-22T00:39:31;6.80;94.50
30999;DHT22;20549;50.042;8.968;2023-02-22T00:41:58;6.80;94.60
30999;DHT22;20549;50.042;8.968;2023-02-22T00:44:24;6.70;94.60
30999;DHT22;20549;50.042;8.968;2023-02-22T00:46:51;6.70;94.70
30999;DHT22;20549;50.042;8.968;2023-02-22T00:49:17;6.60;94.70
30999;DHT22;20549;50.042;8.968;2023-02-22T00:51:44;6.60;94.70
30999;DHT22;20549;50.042;8.968;2023-02-22T00:54:11;6.60;94.90
30999;DHT22;20549;50.042;8.968;2023-02-22T00:56:37;6.60;94.90
30999;DHT22;20549;50.042;8.968;2023-02-22T00:59:04;6.50;95.00
30999;DHT22;20549;50.042;8.968;2023-02-22T01:01:30;6.50;95.00
30999;DHT22;20549;50.042;8.968;2023-02-22T01:03:57;6.50;95.00
30999;DHT22;20549;50.042;8.968;2023-02-22T01:06:24;6.50;95.10
30999;DHT22;20549;50.042;8.968;2023-02-22T01:08:50;6.40;95.40
30999;DHT22;20549;50.042;8.968;2023-02-22T01:11:17;6.40;95.20
30999;DHT22;20549;50.042;8.968;2023-02-22T01:13:43;6.40;95.20
30999;DHT22;20549;50.042;8.968;2023-02-22T01:16:12;6.30;95.30
30999;DHT22;20549;50.042;8.968;2023-02-22T01:18:39;6.40;95.20
30999;DHT22;20549;50.042;8.968;2023-02-22T01:21:05;6.30;95.40
30999;DHT22;20549;50.042;8.968;2023-02-22T01:23:32;6.30;95.40
30999;DHT22;20549;50.042;8.968;2023-02-22T01:25:59;6.30;95.50
30999;DHT22;20549;50.042;8.968;2023-02-22T01:28:26;6.30;95.50
30999;DHT22;20549;50.042;8.968;2023-02-22T01:30:53;6.20;95.50
30999;DHT22;20549;50.042;8.968;2023-02-22T01:33:20;6.20;95.60
30999;DHT22;20549;50.042;8.968;2023-02-22T01:35:46;6.20;95.70
30999;DHT22;20549;50.042;8.968;2023-02-22T01:38:13;6.20;95.70
30999;DHT22;20549;50.042;8.968;2023-02-22T01:40:40;6.10;95.80
30999;DHT22;20549;50.042;8.968;2023-02-22T01:43:31;6.10;95.90
30999;DHT22;20549;50.042;8.968;2023-02-22T01:46:06;6.10;95.80
30999;DHT22;20549;50.042;8.968;2023-02-22T01:48:41;6.10;95.70
30999;DHT22;20549;50.042;8.968;2023-02-22T01:51:20;6.10;95.80
30999;DHT22;20549;50.042;8.968;2023-02-22T01:53:54;6.00;95.80
30999;DHT22;20549;50.042;8.968;2023-02-22T01:56:21;6.00;95.80
30999;DHT22;20549;50.042;8.968;2023-02-22T01:58:53;5.90;95.80
30999;DHT22;20549;50.042;8.968;2023-02-22T02:01:14;5.90;95.90
30999;DHT22;20549;50.042;8.968;2023-02-22T02:03:40;5.90;96.00
30999;DHT22;20549;50.042;8.968;2023-02-22T02:06:08;5.90;96.10
30999;DHT22;20549;50.042;8.968;2023-02-22T02:08:48;5.90;96.10
30999;DHT22;20549;50.042;8.968;2023-02-22T02:11:15;5.90;96.20
30999;DHT22;20549;50.042;8.968;2023-02-22T02:13:41;5.80;96.20
30999;DHT22;20549;50.042;8.968;2023-02-22T02:16:08;5.80;96.30
30999;DHT22;20549;50.042;8.968;2023-02-22T02:18:34;5.80;96.30
30999;DHT22;20549;50.042;8.968;2023-02-22T02:32:07;5.70;95.60
30999;DHT22;20549;50.042;8.968;2023-02-22T02:38:03;5.70;95.60
30999;DHT22;20549;50.042;8.968;2023-02-22T02:39:58;5.60;95.70
30999;DHT22;20549;50.042;8.968;2023-02-22T02:42:24;5.60;95.90
30999;DHT22;20549;50.042;8.968;2023-02-22T02:44:58;5.50;95.90
30999;DHT22;20549;50.042;8.968;2023-02-22T02:47:31;5.50;96.00
30999;DHT22;20549;50.042;8.968;2023-02-22T02:52:30;5.50;96.10
30999;DHT22;20549;50.042;8.968;2023-02-22T02:54:57;5.40;96.10
30999;DHT22;20549;50.042;8.968;2023-02-22T02:57:23;5.40;96.10
30999;DHT22;20549;50.042;8.968;2023-02-22T02:59:50;5.40;96.20
30999;DHT22;20549;50.042;8.968;2023-02-22T03:07:51;5.40;96.20
30999;DHT22;20549;50.042;8.968;2023-02-22T03:15:29;5.30;96.30
30999;DHT22;20549;50.042;8.968;2023-02-22T03:18:14;5.30;96.40
30999;DHT22;20549;50.042;8.968;2023-02-22T03:20:41;5.20;96.40
30999;DHT22;20549;50.042;8.968;2023-02-22T03:23:20;5.20;96.30
30999;DHT22;20549;50.042;8.968;2023-02-22T03:25:42;5.20;96.30
30999;DHT22;20549;50.042;8.968;2023-02-22T03:28:08;5.20;96.30
30999;DHT22;20549;50.042;8.968;2023-02-22T03:30:39;5.20;96.40
30999;DHT22;20549;50.042;8.968;2023-02-22T03:33:04;5.10;96.30
30999;DHT22;20549;50.042;8.968;2023-02-22T03:35:32;5.20;96.30
30999;DHT22;20549;50.042;8.968;2023-02-22T03:37:57;5.10;96.30
30999;DHT22;20549;50.042;8.968;2023-02-22T03:40:42;5.10;96.40
30999;DHT22;20549;50.042;8.968;2023-02-22T03:42:53;5.10;96.40
30999;DHT22;20549;50.042;8.968;2023-02-22T03:45:18;5.10;96.40
30999;DHT22;20549;50.042;8.968;2023-02-22T03:47:46;5.10;96.50
30999;DHT22;20549;50.042;8.968;2023-02-22T03:50:15;5.10;96.50
30999;DHT22;20549;50.042;8.968;2023-02-22T03:52:41;5.10;96.60
30999;DHT22;20549;50.042;8.968;2023-02-22T03:55:08;5.10;96.60
30999;DHT22;20549;50.042;8.968;2023-02-22T03:57:34;5.10;96.60
30999;DHT22;20549;50.042;8.968;2023-02-22T04:00:01;5.00;96.70
30999;DHT22;20549;50.042;8.968;2023-02-22T04:02:27;5.10;96.70
30999;DHT22;20549;50.042;8.968;2023-02-22T04:04:54;5.00;96.80
30999;DHT22;20549;50.042;8.968;2023-02-22T04:07:20;5.00;96.90
30999;DHT22;20549;50.042;8.968;2023-02-22T04:09:47;5.10;96.90
30999;DHT22;20549;50.042;8.968;2023-02-22T04:12:13;5.00;97.00
30999;DHT22;20549;50.042;8.968;2023-02-22T04:14:40;5.00;97.00
30999;DHT22;20549;50.042;8.968;2023-02-22T04:17:07;5.00;97.00
30999;DHT22;20549;50.042;8.968;2023-02-22T04:19:33;5.00;97.00
30999;DHT22;20549;50.042;8.968;2023-02-22T04:22:00;5.00;97.00
30999;DHT22;20549;50.042;8.968;2023-02-22T04:24:26;5.00;97.10
30999;DHT22;20549;50.042;8.968;2023-02-22T04:26:53;5.00;97.10
30999;DHT22;20549;50.042;8.968;2023-02-22T04:29:20;5.00;97.10
30999;DHT22;20549;50.042;8.968;2023-02-22T04:31:46;5.00;97.10
30999;DHT22;20549;50.042;8.968;2023-02-22T04:34:13;5.00;97.10
30999;DHT22;20549;50.042;8.968;2023-02-22T04:36:39;5.00;97.10
30999;DHT22;20549;50.042;8.968;2023-02-22T04:39:06;4.90;97.10
30999;DHT22;20549;50.042;8.968;2023-02-22T04:41:32;4.90;97.00
30999;DHT22;20549;50.042;8.968;2023-02-22T04:43:59;4.90;97.10
30999;DHT22;20549;50.042;8.968;2023-02-22T04:46:26;4.90;97.00
30999;DHT22;20549;50.042;8.968;2023-02-22T04:48:52;4.90;97.00
30999;DHT22;20549;50.042;8.968;2023-02-22T04:51:19;4.80;96.90
30999;DHT22;20549;50.042;8.968;2023-02-22T04:53:45;4.80;96.90
30999;DHT22;20549;50.042;8.968;2023-02-22T04:56:12;4.80;96.90
30999;DHT22;20549;50.042;8.968;2023-02-22T04:58:39;4.70;96.60
30999;DHT22;20549;50.042;8.968;2023-02-22T05:01:05;4.70;96.90
30999;DHT22;20549;50.042;8.968;2023-02-22T05:03:32;4.70;97.00
30999;DHT22;20549;50.042;8.968;2023-02-22T05:05:58;4.70;97.10
30999;DHT22;20549;50.042;8.968;2023-02-22T05:08:25;4.60;97.20
30999;DHT22;20549;50.042;8.968;2023-02-22T05:10:51;4.60;97.20
30999;DHT22;20549;50.042;8.968;2023-02-22T05:13:18;4.60;97.40
30999;DHT22;20549;50.042;8.968;2023-02-22T05:15:45;4.60;97.40
30999;DHT22;20549;50.042;8.968;2023-02-22T05:18:11;4.60;97.40
30999;DHT22;20549;50.042;8.968;2023-02-22T05:20:38;4.60;97.50
30999;DHT22;20549;50.042;8.968;2023-02-22T05:23:04;4.50;97.50
30999;DHT22;20549;50.042;8.968;2023-02-22T05:25:31;4.60;97.50
30999;DHT22;20549;50.042;8.968;2023-02-22T05:28:06;4.50;97.50
30999;DHT22;20549;50.042;8.968;2023-02-22T05:30:31;4.50;97.50
30999;DHT22;20549;50.042;8.968;2023-02-22T05:32:57;4.50;97.50
30999;DHT22;20549;50.042;8.968;2023-02-22T05:35:23;4.50;97.50
30999;DHT22;20549;50.042;8.968;2023-02-22T05:37:50;4.50;97.50
30999;DHT22;20549;50.042;8.968;2023-02-22T05:40:17;4.50;97.60
30999;DHT22;20549;50.042;8.968;2023-02-22T05:42:43;4.40;97.60
30999;DHT22;20549;50.042;8.968;2023-02-22T05:45:12;4.40;97.90
30999;DHT22;20549;50.042;8.968;2023-02-22T05:47:39;4.50;98.20
30999;DHT22;20549;50.042;8.968;2023-02-22T05:50:05;4.50;98.30
30999;DHT22;20549;50.042;8.968;2023-02-22T05:52:32;4.50;98.50
30999;DHT22;20549;50.042;8.968;2023-02-22T05:54:58;4.50;98.70
30999;DHT22;20549;50.042;8.968;2023-02-22T05:57:25;4.50;98.70
30999;DHT22;20549;50.042;8.968;2023-02-22T05:59:52;4.60;99.10
30999;DHT22;20549;50.042;8.968;2023-02-22T06:02:18;4.60;98.70
30999;DHT22;20549;50.042;8.968;2023-02-22T06:04:45;4.60;98.60
30999;DHT22;20549;50.042;8.968;2023-02-22T06:07:12;4.60;98.60
30999;DHT22;20549;50.042;8.968;2023-02-22T06:09:38;4.60;98.50
30999;DHT22;20549;50.042;8.968;2023-02-22T06:12:05;4.60;98.60
30999;DHT22;20549;50.042;8.968;2023-02-22T06:14:31;4.60;98.80
30999;DHT22;20549;50.042;8.968;2023-02-22T06:16:58;4.70;99.10
30999;DHT22;20549;50.042;8.968;2023-02-22T06:19:24;4.70;99.30
30999;DHT22;20549;50.042;8.968;2023-02-22T06:21:55;4.70;99.50
30999;DHT22;20549;50.042;8.968;2023-02-22T06:24:18;4.80;99.70
30999;DHT22;20549;50.042;8.968;2023-02-22T06:26:44;4.90;99.90
30999;DHT22;20549;50.042;8.968;2023-02-22T06:29:11;4.90;99.90
30999;DHT22;20549;50.042;8.968;2023-02-22T06:31:37;5.00;99.90
30999;DHT22;20549;50.042;8.968;2023-02-22T06:34:04;5.10;99.90
30999;DHT22;20549;50.042;8.968;2023-02-22T06:36:30;5.10;99.90
30999;DHT22;20549;50.042;8.968;2023-02-22T06:38:57;5.20;99.90
30999;DHT22;20549;50.042;8.968;2023-02-22T06:41:24;5.30;99.90
30999;DHT22;20549;50.042;8.968;2023-02-22T06:43:50;5.40;99.90
30999;DHT22;20549;50.042;8.968;2023-02-22T06:46:17;5.50;99.90
30999;DHT22;20549;50.042;8.968;2023-02-22T06:48:43;5.60;99.90
30999;DHT22;20549;50.042;8.968;2023-02-22T06:51:10;5.70;99.90
30999;DHT22;20549;50.042;8.968;2023-02-22T06:53:36;5.70;99.90
30999;DHT22;20549;50.042;8.968;2023-02-22T06:56:03;5.80;99.90
30999;DHT22;20549;50.042;8.968;2023-02-22T06:58:30;5.90;99.90
30999;DHT22;20549;50.042;8.968;2023-02-22T07:00:56;6.00;99.90
30999;DHT22;20549;50.042;8.968;2023-02-22T07:05:50;6.00;99.90
30999;DHT22;20549;50.042;8.968;2023-02-22T07:08:16;6.20;99.90
30999;DHT22;20549;50.042;8.968;2023-02-22T07:10:43;6.30;99.90
30999;DHT22;20549;50.042;8.968;2023-02-22T07:13:10;6.40;99.90
30999;DHT22;20549;50.042;8.968;2023-02-22T07:15:36;6.40;99.90
30999;DHT22;20549;50.042;8.968;2023-02-22T07:18:03;6.50;99.90
30999;DHT22;20549;50.042;8.968;2023-02-22T07:20:29;6.60;99.90
30999;DHT22;20549;50.042;8.968;2023-02-22T07:22:56;6.70;99.90
30999;DHT22;20549;50.042;8.968;2023-02-22T07:25:23;6.70;99.90
30999;DHT22;20549;50.042;8.968;2023-02-22T07:27:49;6.80;99.90
30999;DHT22;20549;50.042;8.968;2023-02-22T07:30:17;6.80;99.90
30999;DHT22;20549;50.042;8.968;2023-02-22T07:32:42;6.90;99.90
30999;DHT22;20549;50.042;8.968;2023-02-22T07:35:19;7.00;99.90
30999;DHT22;20549;50.042;8.968;2023-02-22T07:37:44;7.00;99.90
30999;DHT22;20549;50.042;8.968;2023-02-22T07:40:11;7.10;99.90
30999;DHT22;20549;50.042;8.968;2023-02-22T07:42:53;7.10;99.90
30999;DHT22;20549;50.042;8.968;2023-02-22T07:45:19;7.20;99.90
30999;DHT22;20549;50.042;8.968;2023-02-22T07:47:45;7.20;99.90
30999;DHT22;20549;50.042;8.968;2023-02-22T07:50:14;7.30;99.90
30999;DHT22;20549;50.042;8.968;2023-02-22T07:52:38;7.40;99.90
30999;DHT22;20549;50.042;8.968;2023-02-22T07:55:05;7.50;99.90
30999;DHT22;20549;50.042;8.968;2023-02-22T07:57:34;7.60;99.90
30999;DHT22;20549;50.042;8.968;2023-02-22T08:00:01;7.60;99.90
30999;DHT22;20549;50.042;8.968;2023-02-22T08:02:28;7.70;99.90
30999;DHT22;20549;50.042;8.968;2023-02-22T08:04:54;7.80;99.90
30999;DHT22;20549;50.042;8.968;2023-02-22T08:07:21;7.90;99.90
30999;DHT22;20549;50.042;8.968;2023-02-22T08:09:47;8.00;99.90
30999;DHT22;20549;50.042;8.968;2023-02-22T08:12:14;8.00;99.90
30999;DHT22;20549;50.042;8.968;2023-02-22T08:14:41;8.10;99.90
30999;DHT22;20549;50.042;8.968;2023-02-22T08:17:07;8.30;99.90
30999;DHT22;20549;50.042;8.968;2023-02-22T08:19:34;8.30;99.90
30999;DHT22;20549;50.042;8.968;2023-02-22T08:22:00;8.40;99.90
30999;DHT22;20549;50.042;8.968;2023-02-22T08:24:27;8.50;99.90
30999;DHT22;20549;50.042;8.968;2023-02-22T08:26:53;8.60;99.90
30999;DHT22;20549;50.042;8.968;2023-02-22T08:29:20;8.60;99.90
30999;DHT22;20549;50.042;8.968;2023-02-22T08:31:50;8.70;99.90
30999;DHT22;20549;50.042;8.968;2023-02-22T08:34:16;8.80;99.90
30999;DHT22;20549;50.042;8.968;2023-02-22T08:36:43;8.90;99.90
30999;DHT22;20549;50.042;8.968;2023-02-22T08:39:09;9.00;99.90
30999;DHT22;20549;50.042;8.968;2023-02-22T08:41:36;9.10;99.90
30999;DHT22;20549;50.042;8.968;2023-02-22T08:44:03;9.20;99.90
30999;DHT22;20549;50.042;8.968;2023-02-22T08:46:29;9.30;99.90
30999;DHT22;20549;50.042;8.968;2023-02-22T08:48:56;9.50;99.90
30999;DHT22;20549;50.042;8.968;2023-02-22T08:51:22;9.60;99.90
30999;DHT22;20549;50.042;8.968;2023-02-22T08:53:49;9.70;99.90
30999;DHT22;20549;50.042;8.968;2023-02-22T08:56:16;9.80;99.90
30999;DHT22;20549;50.042;8.968;2023-02-22T08:58:42;9.90;99.90
30999;DHT22;20549;50.042;8.968;2023-02-22T09:01:09;10.00;99.90
30999;DHT22;20549;50.042;8.968;2023-02-22T09:03:35;10.10;99.90
30999;DHT22;20549;50.042;8.968;2023-02-22T09:06:03;10.20;99.90
30999;DHT22;20549;50.042;8.968;2023-02-22T09:08:28;10.30;99.90
30999;DHT22;20549;50.042;8.968;2023-02-22T09:10:55;10.40;99.90
30999;DHT22;20549;50.042;8.968;2023-02-22T09:13:22;10.50;99.90
30999;DHT22;20549;50.042;8.968;2023-02-22T09:15:48;10.60;99.90
30999;DHT22;20549;50.042;8.968;2023-02-22T09:18:15;10.70;99.90
30999;DHT22;20549;50.042;8.968;2023-02-22T09:20:41;10.80;99.90
30999;DHT22;20549;50.042;8.968;2023-02-22T09:23:08;10.90;99.90
30999;DHT22;20549;50.042;8.968;2023-02-22T09:25:35;11.00;99.90
30999;DHT22;20549;50.042;8.968;2023-02-22T09:28:01;11.10;99.90
30999;DHT22;20549;50.042;8.968;2023-02-22T09:30:29;11.10;99.90
30999;DHT22;20549;50.042;8.968;2023-02-22T09:32:56;11.30;99.90
30999;DHT22;20549;50.042;8.968;2023-02-22T09:35:21;11.40;99.90
30999;DHT22;20549;50.042;8.968;2023-02-22T09:37:48;11.50;99.90
30999;DHT22;20549;50.042;8.968;2023-02-22T09:40:17;11.70;99.90
30999;DHT22;20549;50.042;8.968;2023-02-22T09:42:46;11.80;99.90
30999;DHT22;20549;50.042;8.968;2023-02-22T09:50:10;12.30;99.80
30999;DHT22;20549;50.042;8.968;2023-02-22T09:52:50;12.50;99.40
30999;DHT22;20549;50.042;8.968;2023-02-22T09:55:30;12.70;99.10
30999;DHT22;20549;50.042;8.968;2023-02-22T09:57:54;12.90;98.70
30999;DHT22;20549;50.042;8.968;2023-02-22T10:00:21;13.10;98.50
30999;DHT22;20549;50.042;8.968;2023-02-22T10:05:33;13.50;98.20
30999;DHT22;20549;50.042;8.968;2023-02-22T10:07:59;13.70;97.90
30999;DHT22;20549;50.042;8.968;2023-02-22T10:10:25;13.90;97.70
30999;DHT22;20549;50.042;8.968;2023-02-22T10:20:56;14.60;95.70
30999;DHT22;20549;50.042;8.968;2023-02-22T10:23:40;14.70;95.90
30999;DHT22;20549;50.042;8.968;2023-02-22T10:26:12;14.90;95.90
30999;DHT22;20549;50.042;8.968;2023-02-22T10:28:35;15.10;95.60
30999;DHT22;20549;50.042;8.968;2023-02-22T10:31:01;15.30;95.40
30999;DHT22;20549;50.042;8.968;2023-02-22T10:33:35;15.50;94.80
30999;DHT22;20549;50.042;8.968;2023-02-22T10:35:59;15.70;94.10
30999;DHT22;20549;50.042;8.968;2023-02-22T10:38:30;15.80;93.50
30999;DHT22;20549;50.042;8.968;2023-02-22T10:43:31;16.10;91.70
30999;DHT22;20549;50.042;8.968;2023-02-22T10:45:59;16.20;91.10
30999;DHT22;20549;50.042;8.968;2023-02-22T10:48:24;16.30;90.60
30999;DHT22;20549;50.042;8.968;2023-02-22T10:50:51;16.40;90.10
30999;DHT22;20549;50.042;8.968;2023-02-22T10:53:17;16.50;89.70
30999;DHT22;20549;50.042;8.968;2023-02-22T10:56:06;16.50;88.80
30999;DHT22;20549;50.042;8.968;2023-02-22T10:58:42;16.50;87.70
30999;DHT22;20549;50.042;8.968;2023-02-22T11:01:16;16.60;87.70
30999;DHT22;20549;50.042;8.968;2023-02-22T11:03:31;16.60;87.40
30999;DHT22;20549;50.042;8.968;2023-02-22T11:05:58;16.70;86.90
30999;DHT22;20549;50.042;8.968;2023-02-22T11:08:28;16.70;86.40
30999;DHT22;20549;50.042;8.968;2023-02-22T11:10:52;16.80;86.30
30999;DHT22;20549;50.042;8.968;2023-02-22T11:15:44;16.80;85.50
30999;DHT22;20549;50.042;8.968;2023-02-22T11:18:24;16.90;85.30
30999;DHT22;20549;50.042;8.968;2023-02-22T11:20:57;16.90;84.90
30999;DHT22;20549;50.042;8.968;2023-02-22T11:23:18;17.00;84.30
30999;DHT22;20549;50.042;8.968;2023-02-22T11:25:43;17.10;83.60
30999;DHT22;20549;50.042;8.968;2023-02-22T11:28:15;17.10;83.10
30999;DHT22;20549;50.042;8.968;2023-02-22T11:30:36;17.10;82.80
30999;DHT22;20549;50.042;8.968;2023-02-22T11:35:57;17.20;82.00
30999;DHT22;20549;50.042;8.968;2023-02-22T11:38:32;17.20;81.60
30999;DHT22;20549;50.042;8.968;2023-02-22T11:43:30;17.20;81.00
30999;DHT22;20549;50.042;8.968;2023-02-22T11:46:04;17.20;80.70
30999;DHT22;20549;50.042;8.968;2023-02-22T11:48:34;17.20;80.60
30999;DHT22;20549;50.042;8.968;2023-02-22T11:51:21;17.20;80.30
30999;DHT22;20549;50.042;8.968;2023-02-22T11:54:06;17.20;79.90
30999;DHT22;20549;50.042;8.968;2023-02-22T11:56:35;17.30;80.10
30999;DHT22;20549;50.042;8.968;2023-02-22T12:04:34;17.30;79.40
30999;DHT22;20549;50.042;8.968;2023-02-22T12:07:10;17.30;78.90
30999;DHT22;20549;50.042;8.968;2023-02-22T12:09:57;17.30;78.50
30999;DHT22;20549;50.042;8.968;2023-02-22T12:17:28;17.30;78.40
30999;DHT22;20549;50.042;8.968;2023-02-22T12:19:54;17.30;78.20
30999;DHT22;20549;50.042;8.968;2023-02-22T12:22:35;17.20;78.10
30999;DHT22;20549;50.042;8.968;2023-02-22T12:27:43;17.30;78.00
30999;DHT22;20549;50.042;8.968;2023-02-22T12:30:18;17.30;77.80
30999;DHT22;20549;50.042;8.968;2023-02-22T12:32:48;17.40;77.70
30999;DHT22;20549;50.042;8.968;2023-02-22T12:35:22;17.40;77.40
30999;DHT22;20549;50.042;8.968;2023-02-22T12:38:14;17.40;77.20
30999;DHT22;20549;50.042;8.968;2023-02-22T12:41:06;17.40;77.10
30999;DHT22;20549;50.042;8.968;2023-02-22T12:43:50;17.50;76.90
30999;DHT22;20549;50.042;8.968;2023-02-22T12:46:23;17.50;76.80
30999;DHT22;20549;50.042;8.968;2023-02-22T12:49:09;17.60;76.70
30999;DHT22;20549;50.042;8.968;2023-02-22T12:51:40;17.60;76.40
30999;DHT22;20549;50.042;8.968;2023-02-22T12:54:09;17.60;76.20
30999;DHT22;20549;50.042;8.968;2023-02-22T12:56:33;17.60;76.00
30999;DHT22;20549;50.042;8.968;2023-02-22T13:01:41;17.70;75.30
30999;DHT22;20549;50.042;8.968;2023-02-22T13:04:07;17.70;75.30
30999;DHT22;20549;50.042;8.968;2023-02-22T13:07:05;17.70;75.00
30999;DHT22;20549;50.042;8.968;2023-02-22T13:14:51;17.90;74.10
30999;DHT22;20549;50.042;8.968;2023-02-22T13:17:41;17.90;73.80
30999;DHT22;20549;50.042;8.968;2023-02-22T13:20:16;17.90;73.50
30999;DHT22;20549;50.042;8.968;2023-02-22T13:25:30;17.90;73.20
30999;DHT22;20549;50.042;8.968;2023-02-22T13:30:42;18.00;73.10
30999;DHT22;20549;50.042;8.968;2023-02-22T13:35:46;18.00;72.60
30999;DHT22;20549;50.042;8.968;2023-02-22T13:38:20;18.00;72.60
30999;DHT22;20549;50.042;8.968;2023-02-22T13:40:48;18.00;72.20
30999;DHT22;20549;50.042;8.968;2023-02-22T13:51:58;18.20;72.00
30999;DHT22;20549;50.042;8.968;2023-02-22T13:54:36;18.20;72.00
30999;DHT22;20549;50.042;8.968;2023-02-22T13:57:00;18.20;71.80
30999;DHT22;20549;50.042;8.968;2023-02-22T13:59:31;18.30;71.40
30999;DHT22;20549;50.042;8.968;2023-02-22T14:01:56;18.30;71.40
30999;DHT22;20549;50.042;8.968;2023-02-22T14:06:58;18.30;70.80
30999;DHT22;20549;50.042;8.968;2023-02-22T14:09:46;18.30;70.70
30999;DHT22;20549;50.042;8.968;2023-02-22T14:17:36;18.30;70.40
30999;DHT22;20549;50.042;8.968;2023-02-22T14:22:38;18.30;70.40
30999;DHT22;20549;50.042;8.968;2023-02-22T14:25:04;18.40;70.40
30999;DHT22;20549;50.042;8.968;2023-02-22T14:27:40;18.40;69.80
30999;DHT22;20549;50.042;8.968;2023-02-22T14:30:20;18.40;69.80
30999;DHT22;20549;50.042;8.968;2023-02-22T14:32:33;18.40;69.80
30999;DHT22;20549;50.042;8.968;2023-02-22T14:35:03;18.40;69.60
30999;DHT22;20549;50.042;8.968;2023-02-22T14:37:27;18.30;69.40
30999;DHT22;20549;50.042;8.968;2023-02-22T14:39:57;18.30;69.30
30999;DHT22;20549;50.042;8.968;2023-02-22T14:42:35;18.30;69.20
30999;DHT22;20549;50.042;8.968;2023-02-22T14:47:40;18.20;69.10
30999;DHT22;20549;50.042;8.968;2023-02-22T14:50:06;18.20;69.20
30999;DHT22;20549;50.042;8.968;2023-02-22T14:52:33;18.10;69.10
30999;DHT22;20549;50.042;8.968;2023-02-22T14:55:06;18.00;69.20
30999;DHT22;20549;50.042;8.968;2023-02-22T15:00:20;17.90;68.90
30999;DHT22;20549;50.042;8.968;2023-02-22T15:02:48;17.90;69.00
30999;DHT22;20549;50.042;8.968;2023-02-22T15:05:15;17.80;68.90
30999;DHT22;20549;50.042;8.968;2023-02-22T15:07:49;17.80;68.90
30999;DHT22;20549;50.042;8.968;2023-02-22T15:10:16;17.70;68.70
30999;DHT22;20549;50.042;8.968;2023-02-22T15:12:39;17.60;68.80
30999;DHT22;20549;50.042;8.968;2023-02-22T15:15:10;17.60;68.90
30999;DHT22;20549;50.042;8.968;2023-02-22T15:21:10;17.50;69.00
30999;DHT22;20549;50.042;8.968;2023-02-22T15:23:43;17.40;69.20
30999;DHT22;20549;50.042;8.968;2023-02-22T15:26:28;17.30;69.10
30999;DHT22;20549;50.042;8.968;2023-02-22T15:28:55;17.20;69.20
30999;DHT22;20549;50.042;8.968;2023-02-22T15:31:25;17.20;69.20
30999;DHT22;20549;50.042;8.968;2023-02-22T15:33:51;17.10;69.40
30999;DHT22;20549;50.042;8.968;2023-02-22T15:36:21;17.00;69.30
30999;DHT22;20549;50.042;8.968;2023-02-22T15:38:47;17.00;69.40
30999;DHT22;20549;50.042;8.968;2023-02-22T15:41:19;16.90;69.40
30999;DHT22;20549;50.042;8.968;2023-02-22T15:43:39;16.90;69.40
30999;DHT22;20549;50.042;8.968;2023-02-22T15:46:06;16.80;69.40
30999;DHT22;20549;50.042;8.968;2023-02-22T15:48:32;16.80;69.60
30999;DHT22;20549;50.042;8.968;2023-02-22T15:51:08;16.70;69.60
30999;DHT22;20549;50.042;8.968;2023-02-22T15:56:05;16.60;69.70
30999;DHT22;20549;50.042;8.968;2023-02-22T15:58:30;16.50;69.80
30999;DHT22;20549;50.042;8.968;2023-02-22T16:01:04;16.50;69.90
30999;DHT22;20549;50.042;8.968;2023-02-22T16:03:50;16.40;70.00
30999;DHT22;20549;50.042;8.968;2023-02-22T16:08:51;16.30;70.20
30999;DHT22;20549;50.042;8.968;2023-02-22T16:11:34;16.20;70.30
30999;DHT22;20549;50.042;8.968;2023-02-22T16:14:27;16.10;70.40
30999;DHT22;20549;50.042;8.968;2023-02-22T16:16:34;16.00;70.60
30999;DHT22;20549;50.042;8.968;2023-02-22T16:19:31;16.00;70.70
30999;DHT22;20549;50.042;8.968;2023-02-22T16:21:55;15.90;70.80
30999;DHT22;20549;50.042;8.968;2023-02-22T16:24:27;15.80;70.90
30999;DHT22;20549;50.042;8.968;2023-02-22T16:27:15;15.80;71.00
30999;DHT22;20549;50.042;8.968;2023-02-22T16:29:40;15.70;71.20
30999;DHT22;20549;50.042;8.968;2023-02-22T16:32:07;15.60;71.20
30999;DHT22;20549;50.042;8.968;2023-02-22T16:34:34;15.50;71.30
30999;DHT22;20549;50.042;8.968;2023-02-22T16:37:00;15.50;71.40
30999;DHT22;20549;50.042;8.968;2023-02-22T16:39:28;15.40;71.50
30999;DHT22;20549;50.042;8.968;2023-02-22T16:41:54;15.30;71.50
30999;DHT22;20549;50.042;8.968;2023-02-22T16:44:20;15.30;71.70
30999;DHT22;20549;50.042;8.968;2023-02-22T16:46:46;15.20;71.70
30999;DHT22;20549;50.042;8.968;2023-02-22T16:49:13;15.10;71.80
30999;DHT22;20549;50.042;8.968;2023-02-22T16:51:43;15.00;71.90
30999;DHT22;20549;50.042;8.968;2023-02-22T16:54:13;14.90;72.00
30999;DHT22;20549;50.042;8.968;2023-02-22T16:56:38;14.80;72.10
30999;DHT22;20549;50.042;8.968;2023-02-22T16:59:08;14.80;72.20
30999;DHT22;20549;50.042;8.968;2023-02-22T17:01:32;14.70;72.30
30999;DHT22;20549;50.042;8.968;2023-02-22T17:03:58;14.60;72.40
30999;DHT22;20549;50.042;8.968;2023-02-22T17:06:25;14.50;72.50
30999;DHT22;20549;50.042;8.968;2023-02-22T17:08:51;14.40;72.60
30999;DHT22;20549;50.042;8.968;2023-02-22T17:11:18;14.30;72.70
30999;DHT22;20549;50.042;8.968;2023-02-22T17:13:45;14.30;73.00
30999;DHT22;20549;50.042;8.968;2023-02-22T17:16:14;14.20;73.20
30999;DHT22;20549;50.042;8.968;2023-02-22T17:18:40;14.10;73.30
30999;DHT22;20549;50.042;8.968;2023-02-22T17:21:08;14.10;73.50
30999;DHT22;20549;50.042;8.968;2023-02-22T17:23:34;14.00;73.60
30999;DHT22;20549;50.042;8.968;2023-02-22T17:26:01;13.90;73.80
30999;DHT22;20549;50.042;8.968;2023-02-22T17:28:27;13.90;74.00
30999;DHT22;20549;50.042;8.968;2023-02-22T17:30:55;13.80;74.10
30999;DHT22;20549;50.042;8.968;2023-02-22T17:33:21;13.80;74.40
30999;DHT22;20549;50.042;8.968;2023-02-22T17:35:47;13.70;74.50
30999;DHT22;20549;50.042;8.968;2023-02-22T17:38:14;13.70;74.70
30999;DHT22;20549;50.042;8.968;2023-02-22T17:40:40;13.60;74.90
30999;DHT22;20549;50.042;8.968;2023-02-22T17:43:06;13.60;75.00
30999;DHT22;20549;50.042;8.968;2023-02-22T17:45:33;13.50;75.20